Decoded Metar for KJST (JOHNSTOWN in PA, USA) (IATA:JST) | Meteo·Mobile Aviation Weather
aviador You're here:

KJST Decoded Metar

JOHNSTOWN in PA, USA
Report Time2018-11-19 08:54:00
UTC Time2018-11-19 09:52:48
Flight Rules ifr IFR
Wind200° at 03 kt
W.Decomp.*RWY 23: 2.8 kt HW 1 kt LCW
RWY 15: 1.5 kt HW 2.6 kt RCW
W.Rank200° ranks 13
Current wind is below 200° avg. (6.5)
Visibility9656 m
Phenomena:Mist
Clouds:Broken 008 Hf
Overcast 011 Hf
Expected CloudBase > 400 ft AGL from Temp-Dew spread
Ceiling800 ft
Temp02°C (ISA -8)
Dew Point01°C (93% RH)
AAT-0.9°C
QNH1018 hPa
Density Alt1,181 ft
Elevation2,277 ft
Report Wrong Elevation
Raw Report
KJST 190854Z AUTO 20003KT 6SM BR BKN008 OVC011 02/01 A3005 RMK AO2
CIG 006V010 SLP192 60000 T00220006 56005 $=

Extra information for KJST:More info

Metar Taf Metar & Taf Last 4 Metars F.Rules Stats Wind Profile Meteogram Temp Stats Airport Information Weather charts Add Link Nearby VenuesMetar ALERT Operation Metar Decoded Social comments

AIRNAV info for KJST